Time;durP1;ratioP1;P1;durP2;ratioP2;P2;SDS_P1;SDS_P2;PMS_P1;PMS_P2;Temp;Humidity;BMP_temperature;BMP_pressure;BME280_temperature;BME280_humidity;BME280_pressure;Samples;Min_cycle;Max_cycle;Signal;HPM_P1;HPM_P2
2024/01/22 00:01:39;;;;;;;;;9.00;4.67;;;;;;;;5091234;27;28445;-81
2024/01/22 00:04:04;;;;;;;;;4.00;4.00;;;;;;;;5087696;27;29832;-81
2024/01/22 00:06:29;;;;;;;;;4.33;4.00;;;;;;;;5088847;28;28851;-80
2024/01/22 00:08:54;;;;;;;;;4.00;4.00;;;;;;;;5088876;28;28730;-80
2024/01/22 00:11:20;;;;;;;;;3.33;3.33;;;;;;;;5089457;27;28422;-80
2024/01/22 00:13:45;;;;;;;;;3.00;3.00;;;;;;;;5088205;27;29144;-80
2024/01/22 00:16:12;;;;;;;;;3.00;3.00;;;;;;;;5084878;27;28571;-81
2024/01/22 00:18:37;;;;;;;;;3.00;3.00;;;;;;;;5085526;28;28926;-80
2024/01/22 00:21:03;;;;;;;;;2.33;1.33;;;;;;;;5083443;27;29627;-79
2024/01/22 00:23:28;;;;;;;;;2.00;2.00;;;;;;;;5091977;27;29839;-79
2024/01/22 00:25:54;;;;;;;;;4.00;3.33;;;;;;;;5088773;27;28471;-79
2024/01/22 00:28:19;;;;;;;;;3.00;3.00;;;;;;;;5086837;27;28890;-80
2024/01/22 00:30:44;;;;;;;;;6.00;4.33;;;;;;;;5085809;27;29726;-81
2024/01/22 00:33:09;;;;;;;;;4.67;3.33;;;;;;;;5089253;27;28518;-81
2024/01/22 00:35:34;;;;;;;;;4.67;3.33;;;;;;;;5079211;28;28345;-81
2024/01/22 00:38:00;;;;;;;;;6.00;3.00;;;;;;;;5103822;27;28375;-80
2024/01/22 00:40:25;;;;;;;;;7.00;4.00;;;;;;;;5088927;28;28745;-81
2024/01/22 00:42:50;;;;;;;;;2.67;2.67;;;;;;;;5085051;28;28857;-79
2024/01/22 00:45:15;;;;;;;;;3.00;3.00;;;;;;;;5093295;27;28770;-78
2024/01/22 00:47:41;;;;;;;;;3.33;2.67;;;;;;;;5086318;27;28978;-80
2024/01/22 00:50:06;;;;;;;;;3.00;3.00;;;;;;;;5091950;27;28558;-81
2024/01/22 00:52:31;;;;;;;;;4.00;2.00;;;;;;;;5088788;27;28495;-81
2024/01/22 00:54:57;;;;;;;;;2.67;2.67;;;;;;;;5088367;27;28458;-80
2024/01/22 00:57:22;;;;;;;;;2.67;2.67;;;;;;;;5088042;28;28449;-79
2024/01/22 00:59:47;;;;;;;;;4.33;4.00;;;;;;;;5088312;27;28679;-79
2024/01/22 01:02:15;;;;;;;;;5.00;3.00;;;;;;;;5095909;27;28803;-81
2024/01/22 01:04:41;;;;;;;;;2.00;2.00;;;;;;;;5090477;27;28727;-81
2024/01/22 01:07:06;;;;;;;;;3.33;2.33;;;;;;;;5088692;27;28865;-81
2024/01/22 01:09:32;;;;;;;;;2.00;2.00;;;;;;;;5089120;27;28762;-80
2024/01/22 01:11:57;;;;;;;;;5.00;3.33;;;;;;;;5097427;27;28593;-80
2024/01/22 01:14:23;;;;;;;;;2.00;2.00;;;;;;;;5088050;28;28782;-78
2024/01/22 01:16:48;;;;;;;;;3.00;3.00;;;;;;;;5086875;28;29203;-78
2024/01/22 01:19:13;;;;;;;;;1.67;1.67;;;;;;;;5086942;27;28822;-79
2024/01/22 01:21:39;;;;;;;;;2.67;1.00;;;;;;;;5089735;27;28581;-80
2024/01/22 01:24:04;;;;;;;;;2.00;2.00;;;;;;;;5087943;27;28833;-80
2024/01/22 01:26:29;;;;;;;;;2.33;2.33;;;;;;;;5087789;28;28452;-80
2024/01/22 01:28:54;;;;;;;;;4.00;4.00;;;;;;;;5087410;27;28659;-79
2024/01/22 01:31:20;;;;;;;;;4.67;2.00;;;;;;;;5086265;27;30356;-80
2024/01/22 01:33:45;;;;;;;;;2.00;2.00;;;;;;;;5075862;28;28604;-78
2024/01/22 01:36:10;;;;;;;;;1.33;1.33;;;;;;;;5088142;27;28791;-80
2024/01/22 01:38:36;;;;;;;;;2.00;2.00;;;;;;;;5087773;27;28849;-80
2024/01/22 01:41:01;;;;;;;;;1.00;1.00;;;;;;;;5091586;27;29755;-81
2024/01/22 01:43:27;;;;;;;;;3.00;1.67;;;;;;;;5089455;27;28401;-81
2024/01/22 01:45:53;;;;;;;;;1.33;1.33;;;;;;;;5086495;28;28495;-80
2024/01/22 01:48:18;;;;;;;;;0.00;0.00;;;;;;;;5100498;27;28973;-80
2024/01/22 01:50:44;;;;;;;;;1.00;1.00;;;;;;;;5086518;27;28397;-79
2024/01/22 01:53:09;;;;;;;;;2.67;2.00;;;;;;;;5088010;27;28483;-80
2024/01/22 01:55:36;;;;;;;;;3.33;2.67;;;;;;;;5087657;27;28475;-80
2024/01/22 01:58:01;;;;;;;;;4.33;2.00;;;;;;;;5087275;28;28424;-80
2024/01/22 02:00:27;;;;;;;;;2.33;2.33;;;;;;;;5086020;27;29352;-80
2024/01/22 02:02:52;;;;;;;;;1.33;1.33;;;;;;;;5087324;27;28795;-78
2024/01/22 02:05:17;;;;;;;;;2.33;1.00;;;;;;;;5087760;28;28479;-79
2024/01/22 02:07:42;;;;;;;;;4.33;3.00;;;;;;;;5087885;27;29010;-79
2024/01/22 02:10:12;;;;;;;;;3.00;2.00;;;;;;;;5093643;27;29774;-78
2024/01/22 02:12:37;;;;;;;;;1.50;1.50;;;;;;;;5100039;27;28502;-78
2024/01/22 02:15:03;;;;;;;;;3.00;3.00;;;;;;;;5087655;27;28636;-80
2024/01/22 02:17:28;;;;;;;;;1.00;1.00;;;;;;;;5087446;27;29262;-80
2024/01/22 02:19:53;;;;;;;;;4.00;3.00;;;;;;;;5104753;27;28404;-78
2024/01/22 02:22:18;;;;;;;;;5.00;2.00;;;;;;;;5090623;27;28844;-80
2024/01/22 02:24:44;;;;;;;;;2.00;1.00;;;;;;;;5087453;27;28526;-79
2024/01/22 02:27:09;;;;;;;;;2.00;2.00;;;;;;;;5074062;27;28494;-80
2024/01/22 02:29:34;;;;;;;;;2.00;2.00;;;;;;;;5096638;27;30128;-81
2024/01/22 02:31:59;;;;;;;;;2.00;2.00;;;;;;;;5088879;27;28485;-79
2024/01/22 02:34:25;;;;;;;;;3.33;2.00;;;;;;;;5086322;27;28425;-80
2024/01/22 02:36:50;;;;;;;;;1.00;1.00;;;;;;;;5076105;28;29981;-80
2024/01/22 02:39:15;;;;;;;;;2.00;2.00;;;;;;;;5086482;28;28717;-80
2024/01/22 02:41:40;;;;;;;;;2.00;2.00;;;;;;;;5087616;27;28558;-79
2024/01/22 02:44:06;;;;;;;;;1.00;1.00;;;;;;;;5086352;28;28502;-79
2024/01/22 02:46:31;;;;;;;;;1.33;1.33;;;;;;;;5086704;28;28678;-78
2024/01/22 02:48:58;;;;;;;;;2.67;2.33;;;;;;;;5087263;27;28662;-79
2024/01/22 02:51:23;;;;;;;;;1.67;1.67;;;;;;;;5079020;27;28993;-77
2024/01/22 02:53:50;;;;;;;;;1.00;1.00;;;;;;;;5087582;27;27966;-78
2024/01/22 02:56:19;;;;;;;;;1.00;1.00;;;;;;;;5089999;28;28524;-76
2024/01/22 02:58:44;;;;;;;;;2.00;2.00;;;;;;;;5079349;28;29716;-78
2024/01/22 03:01:09;;;;;;;;;2.00;2.00;;;;;;;;5094120;27;28539;-81
2024/01/22 03:03:34;;;;;;;;;1.00;1.00;;;;;;;;5090459;28;28507;-78
2024/01/22 03:05:59;;;;;;;;;2.00;1.00;;;;;;;;5091207;28;28410;-80
2024/01/22 03:08:25;;;;;;;;;1.00;1.00;;;;;;;;5089632;27;30789;-81
2024/01/22 03:10:50;;;;;;;;;2.00;2.00;;;;;;;;5091408;27;28949;-78
2024/01/22 03:13:15;;;;;;;;;1.00;1.00;;;;;;;;5092514;27;28429;-80
2024/01/22 03:15:40;;;;;;;;;1.00;1.00;;;;;;;;5090973;28;28770;-81
2024/01/22 03:18:06;;;;;;;;;2.00;2.00;;;;;;;;5091621;28;31599;-81
2024/01/22 03:20:31;;;;;;;;;4.33;1.33;;;;;;;;5098153;27;28503;-80
2024/01/22 03:22:56;;;;;;;;;2.00;2.00;;;;;;;;5090632;28;28491;-80
2024/01/22 03:25:21;;;;;;;;;0.67;0.67;;;;;;;;5101116;27;28512;-80
2024/01/22 03:27:47;;;;;;;;;2.00;1.00;;;;;;;;5094391;27;28736;-81
2024/01/22 03:30:12;;;;;;;;;2.00;2.00;;;;;;;;5104836;27;28473;-80
2024/01/22 03:32:37;;;;;;;;;3.00;2.00;;;;;;;;5101505;27;28519;-79
2024/01/22 03:35:02;;;;;;;;;1.00;1.00;;;;;;;;5093151;28;28555;-80
2024/01/22 03:37:28;;;;;;;;;2.67;1.00;;;;;;;;5091406;27;28535;-79
2024/01/22 03:39:53;;;;;;;;;2.33;2.00;;;;;;;;5090225;27;28485;-78
2024/01/22 03:42:18;;;;;;;;;2.00;1.00;;;;;;;;5087310;28;28555;-78
2024/01/22 03:44:43;;;;;;;;;2.00;2.00;;;;;;;;5091146;28;28834;-78
2024/01/22 03:47:09;;;;;;;;;1.00;1.00;;;;;;;;5100041;27;28594;-80
2024/01/22 03:49:34;;;;;;;;;1.67;1.67;;;;;;;;5091087;28;28473;-81
2024/01/22 03:51:59;;;;;;;;;1.00;1.00;;;;;;;;5096041;27;28434;-81
2024/01/22 03:54:24;;;;;;;;;1.67;1.67;;;;;;;;5096302;28;28776;-80
2024/01/22 03:56:50;;;;;;;;;2.00;2.00;;;;;;;;5092965;27;28522;-81
2024/01/22 03:59:15;;;;;;;;;1.33;1.00;;;;;;;;5099575;27;28613;-80
2024/01/22 04:01:40;;;;;;;;;2.00;1.00;;;;;;;;5108625;27;28037;-80
2024/01/22 04:04:05;;;;;;;;;1.00;1.00;;;;;;;;5101532;27;29481;-80
2024/01/22 04:06:30;;;;;;;;;1.00;1.00;;;;;;;;5094669;27;28831;-80
2024/01/22 04:08:56;;;;;;;;;1.00;1.00;;;;;;;;5095389;27;28350;-80
2024/01/22 04:11:21;;;;;;;;;2.00;2.00;;;;;;;;5087930;28;28836;-80
2024/01/22 04:13:46;;;;;;;;;3.00;2.00;;;;;;;;5083891;27;29482;-79
2024/01/22 04:16:14;;;;;;;;;3.67;2.67;;;;;;;;5095588;27;28649;-80
2024/01/22 04:18:40;;;;;;;;;1.00;1.00;;;;;;;;5100830;27;28460;-79
2024/01/22 04:21:05;;;;;;;;;2.67;2.00;;;;;;;;5088986;27;28838;-80
2024/01/22 04:23:30;;;;;;;;;2.00;2.00;;;;;;;;5100989;27;29103;-80
2024/01/22 04:25:56;;;;;;;;;1.67;1.00;;;;;;;;5088109;27;29301;-81
2024/01/22 04:28:21;;;;;;;;;2.00;1.00;;;;;;;;5090259;27;29049;-81
2024/01/22 04:30:46;;;;;;;;;3.67;2.67;;;;;;;;5091839;27;28610;-80
2024/01/22 04:33:11;;;;;;;;;1.33;1.33;;;;;;;;5096754;27;28494;-84
2024/01/22 04:35:36;;;;;;;;;1.00;1.00;;;;;;;;5089796;28;29402;-81
2024/01/22 04:38:02;;;;;;;;;1.00;1.00;;;;;;;;5095485;27;28030;-82
2024/01/22 04:40:27;;;;;;;;;0.67;0.67;;;;;;;;5089757;28;28875;-81
2024/01/22 04:42:52;;;;;;;;;3.67;2.00;;;;;;;;5089164;27;30511;-81
2024/01/22 04:45:17;;;;;;;;;1.67;1.00;;;;;;;;5089039;27;29414;-81
2024/01/22 04:47:43;;;;;;;;;4.00;1.33;;;;;;;;5090203;27;28594;-80
2024/01/22 04:50:09;;;;;;;;;0.33;0.33;;;;;;;;5086902;27;28498;-82
2024/01/22 04:52:34;;;;;;;;;1.67;1.00;;;;;;;;5100679;27;29073;-81
2024/01/22 04:54:59;;;;;;;;;0.00;0.00;;;;;;;;5090543;27;28718;-81
2024/01/22 04:57:24;;;;;;;;;1.00;1.00;;;;;;;;5094172;27;28500;-82
2024/01/22 04:59:50;;;;;;;;;1.00;1.00;;;;;;;;5094755;27;28502;-81
2024/01/22 05:02:17;;;;;;;;;2.00;0.00;;;;;;;;5088582;27;29342;-82
2024/01/22 05:04:42;;;;;;;;;0.00;0.00;;;;;;;;5087963;27;30331;-80
2024/01/22 05:07:07;;;;;;;;;1.00;1.00;;;;;;;;5090248;27;28920;-81
2024/01/22 05:09:32;;;;;;;;;2.33;0.67;;;;;;;;5088872;27;28476;-80
2024/01/22 05:11:58;;;;;;;;;1.67;1.67;;;;;;;;5087316;27;30560;-80
2024/01/22 05:14:23;;;;;;;;;1.67;1.67;;;;;;;;5088443;28;30446;-80
2024/01/22 05:16:48;;;;;;;;;1.00;0.00;;;;;;;;5100698;27;28433;-80
2024/01/22 05:19:14;;;;;;;;;1.00;1.00;;;;;;;;5096245;27;28769;-79
2024/01/22 05:21:39;;;;;;;;;0.67;0.67;;;;;;;;5088420;27;29635;-80
2024/01/22 05:24:06;;;;;;;;;0.00;0.00;;;;;;;;5086145;27;30971;-79
2024/01/22 05:26:31;;;;;;;;;1.00;1.00;;;;;;;;5092188;27;28554;-78
2024/01/22 05:28:56;;;;;;;;;0.33;0.33;;;;;;;;5086568;27;28437;-79
2024/01/22 05:31:21;;;;;;;;;2.00;1.00;;;;;;;;5083097;27;30088;-78
2024/01/22 05:33:47;;;;;;;;;1.00;1.00;;;;;;;;5085755;27;30738;-80
2024/01/22 05:36:12;;;;;;;;;0.67;0.67;;;;;;;;5086602;27;28618;-77
2024/01/22 05:38:43;;;;;;;;;0.00;0.00;;;;;;;;5083173;27;28468;-76
2024/01/22 05:41:08;;;;;;;;;0.33;0.33;;;;;;;;5088420;27;28999;-77
2024/01/22 05:43:33;;;;;;;;;1.00;1.00;;;;;;;;5091307;27;28871;-79
2024/01/22 05:45:59;;;;;;;;;2.00;2.00;;;;;;;;5101713;27;28638;-79
2024/01/22 05:48:24;;;;;;;;;1.00;1.00;;;;;;;;5095860;27;28478;-79
2024/01/22 05:50:49;;;;;;;;;1.33;0.00;;;;;;;;5094309;27;28611;-80
2024/01/22 05:53:15;;;;;;;;;0.00;0.00;;;;;;;;5107537;27;28339;-82
2024/01/22 05:55:41;;;;;;;;;2.67;1.33;;;;;;;;5099900;28;28767;-79
2024/01/22 05:58:06;;;;;;;;;1.67;1.67;;;;;;;;5100686;27;28493;-79
2024/01/22 06:00:31;;;;;;;;;2.33;1.33;;;;;;;;5088663;27;30468;-78
2024/01/22 06:02:58;;;;;;;;;1.00;1.00;;;;;;;;5096087;27;28617;-80
2024/01/22 06:05:23;;;;;;;;;4.00;0.25;;;;;;;;5098876;27;28540;-80
2024/01/22 06:07:48;;;;;;;;;1.00;1.00;;;;;;;;5092374;27;28221;-83
2024/01/22 06:10:13;;;;;;;;;1.00;1.00;;;;;;;;5084332;28;29726;-77
2024/01/22 06:12:39;;;;;;;;;0.33;0.33;;;;;;;;5085996;28;29122;-78
2024/01/22 06:15:04;;;;;;;;;0.00;0.00;;;;;;;;5092174;27;28979;-77
2024/01/22 06:17:31;;;;;;;;;1.00;1.00;;;;;;;;5090966;27;29066;-78
2024/01/22 06:19:58;;;;;;;;;1.00;1.00;;;;;;;;5090045;27;28553;-78
2024/01/22 06:22:23;;;;;;;;;1.00;1.00;;;;;;;;5078060;28;30256;-77
2024/01/22 06:24:49;;;;;;;;;0.00;0.00;;;;;;;;5083611;28;28511;-79
2024/01/22 06:27:14;;;;;;;;;2.00;2.00;;;;;;;;5084111;28;29154;-79
2024/01/22 06:29:39;;;;;;;;;0.00;0.00;;;;;;;;5087869;28;28931;-79
2024/01/22 06:32:07;;;;;;;;;1.33;0.33;;;;;;;;5081610;28;29882;-78
2024/01/22 06:34:32;;;;;;;;;2.75;0.75;;;;;;;;5073531;27;28509;-81
2024/01/22 06:36:57;;;;;;;;;2.67;1.00;;;;;;;;5086291;28;28405;-79
2024/01/22 06:39:22;;;;;;;;;0.33;0.33;;;;;;;;5088938;28;28681;-80
2024/01/22 06:41:48;;;;;;;;;0.67;0.33;;;;;;;;5078330;27;28849;-80
2024/01/22 06:44:13;;;;;;;;;0.33;0.33;;;;;;;;5091513;27;28459;-81
2024/01/22 06:46:38;;;;;;;;;1.67;1.33;;;;;;;;5093507;28;28481;-81
2024/01/22 06:49:04;;;;;;;;;1.67;1.67;;;;;;;;5092762;28;28510;-82
2024/01/22 06:51:30;;;;;;;;;0.67;0.67;;;;;;;;5093868;27;28594;-81
2024/01/22 06:53:56;;;;;;;;;2.00;1.00;;;;;;;;5094615;28;28481;-82
2024/01/22 06:56:23;;;;;;;;;1.00;1.00;;;;;;;;5095640;27;28607;-81
2024/01/22 06:58:48;;;;;;;;;1.67;1.00;;;;;;;;5100600;27;28490;-85
2024/01/22 07:01:14;;;;;;;;;3.67;2.00;;;;;;;;5098061;28;30408;-82
2024/01/22 07:03:40;;;;;;;;;2.00;0.00;;;;;;;;5095473;27;28411;-87
2024/01/22 07:06:06;;;;;;;;;2.00;2.00;;;;;;;;5097682;28;28541;-86
2024/01/22 07:08:31;;;;;;;;;2.33;1.00;;;;;;;;5096396;28;28652;-86
2024/01/22 07:10:57;;;;;;;;;1.00;1.00;;;;;;;;5097216;28;28637;-79
2024/01/22 07:13:23;;;;;;;;;1.00;1.00;;;;;;;;5084962;27;28882;-85
2024/01/22 07:15:51;;;;;;;;;1.00;1.00;;;;;;;;5089818;28;28906;-81
2024/01/22 07:18:16;;;;;;;;;0.00;0.00;;;;;;;;5086384;28;28943;-80
2024/01/22 07:20:41;;;;;;;;;1.00;1.00;;;;;;;;5094096;28;28543;-74
2024/01/22 07:23:07;;;;;;;;;1.67;1.00;;;;;;;;5090037;28;28326;-79
2024/01/22 07:25:36;;;;;;;;;1.00;1.00;;;;;;;;5090609;28;28546;-80
2024/01/22 07:28:03;;;;;;;;;3.00;3.00;;;;;;;;5076299;27;28559;-80
2024/01/22 07:30:28;;;;;;;;;1.67;1.67;;;;;;;;5085148;27;28487;-84
2024/01/22 07:32:53;;;;;;;;;2.00;1.00;;;;;;;;5086107;27;28663;-77
2024/01/22 07:35:19;;;;;;;;;2.00;2.00;;;;;;;;5092779;28;28559;-80
2024/01/22 07:37:47;;;;;;;;;0.67;0.67;;;;;;;;5086268;28;28673;-78
2024/01/22 07:40:12;;;;;;;;;2.00;0.00;;;;;;;;5086046;28;28506;-80
2024/01/22 07:42:39;;;;;;;;;1.00;1.00;;;;;;;;5094123;27;28814;-81
2024/01/22 07:45:08;;;;;;;;;2.00;2.00;;;;;;;;5094229;27;28424;-79
2024/01/22 07:47:34;;;;;;;;;1.67;1.67;;;;;;;;5095333;28;28468;-88
2024/01/22 07:49:59;;;;;;;;;2.67;1.67;;;;;;;;5099113;28;28830;-84
2024/01/22 07:52:24;;;;;;;;;2.00;2.00;;;;;;;;5104736;28;29524;-85
2024/01/22 07:54:50;;;;;;;;;3.00;2.00;;;;;;;;5108140;27;28487;-84
2024/01/22 07:57:15;;;;;;;;;0.67;0.67;;;;;;;;5098077;28;29687;-80
2024/01/22 07:59:41;;;;;;;;;3.00;3.00;;;;;;;;5089717;28;28866;-80
2024/01/22 08:02:06;;;;;;;;;1.00;1.00;;;;;;;;5084868;27;29780;-78
2024/01/22 08:04:32;;;;;;;;;1.00;1.00;;;;;;;;5092038;27;28457;-81
2024/01/22 08:07:00;;;;;;;;;1.33;0.00;;;;;;;;5093922;27;28619;-81
2024/01/22 08:09:25;;;;;;;;;0.33;0.33;;;;;;;;5093351;28;29624;-80
2024/01/22 08:11:50;;;;;;;;;0.00;0.00;;;;;;;;5093953;27;28552;-80
2024/01/22 08:14:16;;;;;;;;;1.00;1.00;;;;;;;;5093135;27;28561;-80
2024/01/22 08:16:43;;;;;;;;;2.00;1.33;;;;;;;;5095980;28;28781;-80
2024/01/22 08:19:08;;;;;;;;;2.00;2.00;;;;;;;;5096017;27;28451;-81
2024/01/22 08:21:33;;;;;;;;;3.33;1.00;;;;;;;;5088691;28;27853;-80
2024/01/22 08:23:58;;;;;;;;;2.00;1.00;;;;;;;;5093595;28;28522;-83
2024/01/22 08:26:24;;;;;;;;;3.67;2.00;;;;;;;;5101247;28;29534;-81
2024/01/22 08:28:49;;;;;;;;;1.00;0.00;;;;;;;;5094234;27;28597;-81
2024/01/22 08:31:14;;;;;;;;;0.67;0.67;;;;;;;;5093834;28;28597;-82
2024/01/22 08:33:39;;;;;;;;;2.33;0.67;;;;;;;;5087148;27;28487;-81
2024/01/22 08:36:05;;;;;;;;;1.00;1.00;;;;;;;;5097854;28;28569;-79
2024/01/22 08:38:32;;;;;;;;;2.67;0.67;;;;;;;;5096321;27;29008;-80
2024/01/22 08:40:57;;;;;;;;;2.00;2.00;;;;;;;;5095444;27;28072;-80
2024/01/22 08:43:22;;;;;;;;;1.33;1.33;;;;;;;;5094743;28;28473;-80
2024/01/22 08:45:48;;;;;;;;;1.00;1.00;;;;;;;;5093084;28;28422;-80
2024/01/22 08:48:13;;;;;;;;;1.33;1.00;;;;;;;;5088955;27;28607;-81
2024/01/22 08:50:39;;;;;;;;;1.67;0.67;;;;;;;;5091081;28;28452;-80
2024/01/22 08:53:04;;;;;;;;;1.67;1.67;;;;;;;;5090733;28;28327;-80
2024/01/22 08:55:29;;;;;;;;;1.33;1.00;;;;;;;;5089236;27;29997;-80
2024/01/22 08:57:55;;;;;;;;;4.33;1.67;;;;;;;;5089974;28;28543;-79
2024/01/22 09:00:21;;;;;;;;;4.33;2.67;;;;;;;;5091963;27;28850;-80
2024/01/22 09:02:47;;;;;;;;;1.00;1.00;;;;;;;;5092000;27;28548;-79
2024/01/22 09:05:12;;;;;;;;;3.67;1.00;;;;;;;;5088415;28;29542;-79
2024/01/22 09:07:38;;;;;;;;;2.33;1.33;;;;;;;;5089424;27;28807;-79
2024/01/22 09:10:06;;;;;;;;;3.00;1.67;;;;;;;;5089060;27;28942;-80
2024/01/22 09:12:32;;;;;;;;;1.67;0.67;;;;;;;;5092957;27;28871;-82
2024/01/22 09:14:58;;;;;;;;;3.33;1.33;;;;;;;;5091118;27;28792;-79
2024/01/22 09:17:24;;;;;;;;;3.33;1.33;;;;;;;;5090755;27;29941;-77
2024/01/22 09:19:49;;;;;;;;;1.00;0.67;;;;;;;;5080467;28;28547;-79
2024/01/22 09:22:15;;;;;;;;;2.00;2.00;;;;;;;;5088013;28;28630;-78
2024/01/22 09:24:40;;;;;;;;;0.33;0.33;;;;;;;;5091811;27;28454;-80
2024/01/22 09:27:05;;;;;;;;;1.33;1.00;;;;;;;;5091480;27;30092;-78
2024/01/22 09:29:31;;;;;;;;;2.00;0.67;;;;;;;;5091994;28;28123;-78
2024/01/22 09:31:56;;;;;;;;;1.00;1.00;;;;;;;;5092107;27;28546;-79
2024/01/22 09:34:21;;;;;;;;;0.67;0.67;;;;;;;;5091483;28;28512;-78
2024/01/22 09:36:46;;;;;;;;;0.00;0.00;;;;;;;;5091600;28;29284;-79
2024/01/22 09:39:11;;;;;;;;;0.00;0.00;;;;;;;;5090914;28;29879;-79
2024/01/22 09:41:37;;;;;;;;;2.00;2.00;;;;;;;;5092127;27;28404;-80
2024/01/22 09:44:03;;;;;;;;;3.00;1.67;;;;;;;;5094490;27;28983;-79
2024/01/22 09:46:29;;;;;;;;;5.67;2.67;;;;;;;;5091590;27;30330;-80
2024/01/22 09:48:54;;;;;;;;;0.67;0.67;;;;;;;;5095247;27;28577;-78
2024/01/22 09:51:20;;;;;;;;;2.67;0.00;;;;;;;;5095494;28;28840;-80
2024/01/22 09:53:46;;;;;;;;;3.00;2.33;;;;;;;;5087547;28;29512;-80
2024/01/22 09:56:14;;;;;;;;;3.67;2.33;;;;;;;;5091159;27;28485;-79
2024/01/22 09:58:43;;;;;;;;;2.50;2.25;;;;;;;;5091237;27;28200;-80
2024/01/22 10:01:10;;;;;;;;;3.33;2.00;;;;;;;;5091752;27;28527;-79
2024/01/22 10:03:36;;;;;;;;;2.00;1.33;;;;;;;;5090666;27;28817;-79
2024/01/22 10:06:02;;;;;;;;;4.33;2.67;;;;;;;;5092126;27;29538;-79
2024/01/22 10:08:27;;;;;;;;;5.00;3.00;;;;;;;;5087874;27;28451;-78
2024/01/22 10:10:52;;;;;;;;;2.33;2.00;;;;;;;;5082838;28;28716;-78
2024/01/22 10:13:17;;;;;;;;;2.67;2.00;;;;;;;;5088441;28;28460;-78
2024/01/22 10:15:43;;;;;;;;;5.67;3.00;;;;;;;;5092567;28;28894;-79
2024/01/22 10:18:13;;;;;;;;;3.67;2.67;;;;;;;;5094190;28;28870;-77
2024/01/22 10:20:39;;;;;;;;;3.67;2.00;;;;;;;;5092198;27;28132;-80
2024/01/22 10:23:04;;;;;;;;;3.00;2.00;;;;;;;;5090281;27;28920;-82
2024/01/22 10:25:30;;;;;;;;;2.33;2.33;;;;;;;;5083952;27;28599;-78
2024/01/22 10:28:17;;;;;;;;;3.33;0.33;;;;;;;;5091085;27;28574;-78
2024/01/22 10:30:44;;;;;;;;;2.67;2.67;;;;;;;;5092434;27;28253;-82
2024/01/22 10:33:12;;;;;;;;;3.67;2.00;;;;;;;;5095663;27;28855;-85
2024/01/22 10:35:50;;;;;;;;;5.33;2.67;;;;;;;;5091660;28;29431;-86
2024/01/22 10:38:16;;;;;;;;;4.67;0.67;;;;;;;;5092945;27;28529;-83
2024/01/22 10:40:43;;;;;;;;;6.33;2.67;;;;;;;;5085165;27;28425;-83
2024/01/22 10:43:26;;;;;;;;;7.00;2.00;;;;;;;;5086819;27;28452;-83
2024/01/22 10:45:52;;;;;;;;;0.67;0.67;;;;;;;;5097186;27;28825;-82
2024/01/22 10:48:17;;;;;;;;;4.00;1.33;;;;;;;;5093958;27;28409;-80
2024/01/22 10:50:43;;;;;;;;;4.33;0.67;;;;;;;;5090495;27;28599;-80
2024/01/22 10:53:09;;;;;;;;;3.00;3.00;;;;;;;;5091752;27;28792;-78
2024/01/22 10:55:34;;;;;;;;;6.00;2.00;;;;;;;;5091644;27;28520;-80
2024/01/22 10:58:02;;;;;;;;;7.33;2.00;;;;;;;;5090980;28;28917;-80
2024/01/22 11:00:29;;;;;;;;;1.33;0.67;;;;;;;;5092252;27;28507;-79
2024/01/22 11:02:56;;;;;;;;;5.00;1.67;;;;;;;;5091986;27;29277;-79
2024/01/22 11:05:22;;;;;;;;;48.33;28.00;;;;;;;;5088158;28;29682;-81
2024/01/22 11:07:49;;;;;;;;;8.33;3.33;;;;;;;;5084521;28;28785;-80
2024/01/22 11:10:14;;;;;;;;;2.00;2.00;;;;;;;;5090180;27;28566;-79
2024/01/22 11:12:42;;;;;;;;;29.33;13.33;;;;;;;;5091327;27;28881;-79
2024/01/22 11:15:10;;;;;;;;;2.67;1.67;;;;;;;;5091180;27;30693;-84
2024/01/22 11:17:35;;;;;;;;;46.33;26.33;;;;;;;;5096231;28;28498;-84
2024/01/22 11:20:20;;;;;;;;;6.67;4.00;;;;;;;;5094101;28;29168;-81
2024/01/22 11:22:59;;;;;;;;;5.67;3.00;;;;;;;;5094338;27;27945;-83
2024/01/22 11:37:36;;;;;;;;;2.50;1.00;;;;;;;;5132978;27;28930;-71
2024/01/22 11:40:02;;;;;;;;;2.25;2.25;;;;;;;;5150443;27;28327;-71
2024/01/22 11:42:29;;;;;;;;;6.67;3.33;;;;;;;;5135888;27;28963;-72
2024/01/22 11:44:55;;;;;;;;;4.50;2.75;;;;;;;;5141182;27;29552;-73
2024/01/22 11:47:22;;;;;;;;;7.67;4.00;;;;;;;;5132963;27;29104;-71
2024/01/22 11:49:47;;;;;;;;;7.00;3.50;;;;;;;;5138842;27;28537;-72
2024/01/22 11:52:13;;;;;;;;;7.67;2.00;;;;;;;;5141708;27;28523;-71
2024/01/22 11:54:41;;;;;;;;;4.00;2.00;;;;;;;;5137640;27;28846;-72
2024/01/22 11:57:09;;;;;;;;;6.33;5.67;;;;;;;;5143357;27;28409;-72
2024/01/22 11:59:34;;;;;;;;;5.00;2.25;;;;;;;;5131289;27;28449;-72
2024/01/22 12:02:09;;;;;;;;;5.33;1.67;;;;;;;;5143122;27;28604;-72
2024/01/22 12:04:35;;;;;;;;;2.00;2.00;;;;;;;;5138021;27;28974;-72
2024/01/22 12:07:00;;;;;;;;;7.67;4.00;;;;;;;;5136556;27;30852;-73
2024/01/22 12:09:32;;;;;;;;;10.00;4.00;;;;;;;;5134380;27;28860;-72
2024/01/22 12:12:02;;;;;;;;;6.00;3.00;;;;;;;;5143574;27;28718;-73
2024/01/22 12:14:28;;;;;;;;;4.33;3.33;;;;;;;;5140256;27;28789;-72
2024/01/22 12:17:00;;;;;;;;;9.33;3.00;;;;;;;;5143678;27;28505;-73
2024/01/22 12:19:25;;;;;;;;;2.50;2.25;;;;;;;;5138291;27;28789;-73
2024/01/22 12:21:51;;;;;;;;;5.00;4.00;;;;;;;;5130884;27;28756;-76
2024/01/22 12:24:16;;;;;;;;;5.00;3.33;;;;;;;;5131612;27;28886;-73
2024/01/22 12:26:41;;;;;;;;;4.00;3.00;;;;;;;;5136683;27;28768;-74
2024/01/22 12:29:07;;;;;;;;;3.33;2.00;;;;;;;;5132856;27;28611;-71
2024/01/22 12:31:32;;;;;;;;;4.33;2.33;;;;;;;;5137630;27;28874;-72
2024/01/22 12:34:13;;;;;;;;;2.67;1.67;;;;;;;;5143783;27;28626;-71
2024/01/22 12:36:38;;;;;;;;;7.33;2.00;;;;;;;;5141148;27;28579;-72
2024/01/22 12:39:05;;;;;;;;;6.33;2.33;;;;;;;;5129379;27;28487;-75
2024/01/22 12:41:31;;;;;;;;;3.67;2.00;;;;;;;;5120174;27;28387;-74
2024/01/22 12:43:59;;;;;;;;;8.00;2.67;;;;;;;;5127937;27;28691;-78
2024/01/22 12:46:25;;;;;;;;;1.67;1.00;;;;;;;;5130959;27;28477;-75
2024/01/22 12:48:50;;;;;;;;;5.00;2.00;;;;;;;;5126194;27;28711;-76
2024/01/22 12:51:16;;;;;;;;;2.33;1.67;;;;;;;;5127318;27;28415;-75
2024/01/22 12:53:42;;;;;;;;;1.00;1.00;;;;;;;;5131382;27;28868;-70
2024/01/22 12:56:08;;;;;;;;;4.00;2.00;;;;;;;;5125870;27;29632;-70
2024/01/22 12:58:34;;;;;;;;;3.00;0.00;;;;;;;;5124948;27;28814;-71
2024/01/22 13:00:59;;;;;;;;;1.00;0.00;;;;;;;;5129376;27;28650;-72
2024/01/22 13:03:24;;;;;;;;;28.33;17.00;;;;;;;;5131789;27;28952;-73
2024/01/22 13:05:50;;;;;;;;;34.33;20.33;;;;;;;;5129133;27;30509;-71
2024/01/22 13:08:15;;;;;;;;;5.33;3.33;;;;;;;;5117095;27;28489;-72
2024/01/22 13:10:41;;;;;;;;;6.00;4.67;;;;;;;;5127544;27;28824;-71
2024/01/22 13:13:06;;;;;;;;;2.67;1.00;;;;;;;;5115602;27;29420;-72
2024/01/22 13:15:31;;;;;;;;;5.33;2.67;;;;;;;;5118797;27;28791;-72
2024/01/22 13:17:57;;;;;;;;;23.33;14.33;;;;;;;;5131378;27;28951;-73
2024/01/22 13:20:22;;;;;;;;;3.67;2.00;;;;;;;;5130574;27;28537;-73
2024/01/22 13:22:47;;;;;;;;;1.00;1.00;;;;;;;;5130598;27;28934;-73
2024/01/22 13:25:13;;;;;;;;;1.67;1.67;;;;;;;;5130439;27;28457;-73
2024/01/22 13:27:39;;;;;;;;;1.67;1.33;;;;;;;;5131329;27;28509;-72
2024/01/22 13:30:05;;;;;;;;;6.67;3.67;;;;;;;;5131198;27;28704;-71
2024/01/22 13:32:32;;;;;;;;;2.00;0.50;;;;;;;;5131713;27;28441;-73
2024/01/22 13:34:57;;;;;;;;;1.67;1.00;;;;;;;;5131004;27;28772;-71
2024/01/22 13:37:22;;;;;;;;;4.33;1.00;;;;;;;;5131368;27;28496;-72
2024/01/22 13:39:48;;;;;;;;;17.33;10.33;;;;;;;;5130689;27;28442;-72
2024/01/22 13:42:13;;;;;;;;;14.00;5.67;;;;;;;;5130793;27;28732;-71
2024/01/22 13:44:38;;;;;;;;;2.33;1.00;;;;;;;;5124492;27;29309;-72
2024/01/22 13:47:03;;;;;;;;;2.00;1.00;;;;;;;;5119974;27;28689;-71
2024/01/22 13:49:28;;;;;;;;;2.00;1.00;;;;;;;;5122630;27;28968;-73
2024/01/22 13:51:55;;;;;;;;;3.67;1.00;;;;;;;;5120231;27;28612;-72
2024/01/22 13:54:20;;;;;;;;;2.67;1.00;;;;;;;;5125042;27;28479;-72
2024/01/22 13:56:46;;;;;;;;;1.00;0.67;;;;;;;;5125172;27;28485;-71
2024/01/22 13:59:12;;;;;;;;;41.67;24.67;;;;;;;;5128987;27;28390;-71
2024/01/22 14:01:37;;;;;;;;;22.00;11.33;;;;;;;;5130799;27;28771;-71
2024/01/22 14:04:03;;;;;;;;;0.33;0.00;;;;;;;;5128188;27;31214;-72
2024/01/22 14:06:28;;;;;;;;;1.00;1.00;;;;;;;;5129250;27;28454;-71
2024/01/22 14:08:53;;;;;;;;;3.00;1.00;;;;;;;;5130558;27;28764;-71
2024/01/22 14:11:18;;;;;;;;;1.00;1.00;;;;;;;;5130745;27;28766;-70
2024/01/22 14:13:45;;;;;;;;;0.67;0.67;;;;;;;;5129808;27;29409;-70
2024/01/22 14:16:10;;;;;;;;;1.00;0.00;;;;;;;;5130200;27;28726;-71
2024/01/22 14:18:35;;;;;;;;;0.67;0.00;;;;;;;;5116107;27;28397;-71
2024/01/22 14:21:00;;;;;;;;;2.00;0.67;;;;;;;;5113453;27;28640;-70
2024/01/22 14:23:26;;;;;;;;;2.00;0.00;;;;;;;;5123185;27;28772;-70
2024/01/22 14:25:51;;;;;;;;;0.67;0.00;;;;;;;;5120975;27;28546;-70
2024/01/22 14:28:16;;;;;;;;;2.00;1.00;;;;;;;;5122554;27;28811;-71
2024/01/22 14:30:41;;;;;;;;;2.00;1.00;;;;;;;;5127903;27;28436;-72
2024/01/22 14:33:07;;;;;;;;;2.67;1.00;;;;;;;;5127143;27;28663;-72
2024/01/22 14:35:32;;;;;;;;;3.33;1.00;;;;;;;;5126683;27;28971;-72
2024/01/22 14:37:57;;;;;;;;;1.00;1.00;;;;;;;;5128613;27;28370;-71
2024/01/22 14:40:22;;;;;;;;;2.67;1.67;;;;;;;;5126242;27;28481;-71
2024/01/22 14:42:47;;;;;;;;;0.00;0.00;;;;;;;;5128503;27;28736;-71
2024/01/22 14:45:13;;;;;;;;;3.67;1.00;;;;;;;;5127836;27;28624;-71
2024/01/22 14:47:39;;;;;;;;;3.33;0.67;;;;;;;;5129234;27;28690;-73